sensor_id;sensor_type;location;lat;lon;timestamp;temperature;humidity
13652;DHT22;6899;51.546;6.912;2024-03-23T00:56:15;6.20;99.90
13652;DHT22;6899;51.546;6.912;2024-03-23T00:58:41;6.30;99.90
13652;DHT22;6899;51.546;6.912;2024-03-23T01:01:07;6.30;99.90
13652;DHT22;6899;51.546;6.912;2024-03-23T01:03:34;6.30;99.90
13652;DHT22;6899;51.546;6.912;2024-03-23T01:06:01;6.30;99.90
13652;DHT22;6899;51.546;6.912;2024-03-23T01:08:29;6.20;99.90
13652;DHT22;6899;51.546;6.912;2024-03-23T01:10:55;6.20;99.90
13652;DHT22;6899;51.546;6.912;2024-03-23T01:13:22;6.10;99.90
13652;DHT22;6899;51.546;6.912;2024-03-23T01:15:48;6.10;99.90
13652;DHT22;6899;51.546;6.912;2024-03-23T01:18:15;6.00;99.90
13652;DHT22;6899;51.546;6.912;2024-03-23T01:20:41;5.80;99.90
13652;DHT22;6899;51.546;6.912;2024-03-23T01:23:09;5.70;99.90
13652;DHT22;6899;51.546;6.912;2024-03-23T01:25:35;5.70;99.90
13652;DHT22;6899;51.546;6.912;2024-03-23T01:28:02;5.70;99.90
13652;DHT22;6899;51.546;6.912;2024-03-23T01:30:27;5.70;99.90
13652;DHT22;6899;51.546;6.912;2024-03-23T01:32:55;5.80;99.90
13652;DHT22;6899;51.546;6.912;2024-03-23T01:35:20;5.80;99.90
13652;DHT22;6899;51.546;6.912;2024-03-23T01:37:47;5.60;99.90
13652;DHT22;6899;51.546;6.912;2024-03-23T01:40:16;5.70;99.90
13652;DHT22;6899;51.546;6.912;2024-03-23T01:42:55;5.80;99.90
13652;DHT22;6899;51.546;6.912;2024-03-23T01:45:21;5.90;99.90
13652;DHT22;6899;51.546;6.912;2024-03-23T01:47:49;5.90;99.90
13652;DHT22;6899;51.546;6.912;2024-03-23T01:50:15;5.90;99.90
13652;DHT22;6899;51.546;6.912;2024-03-23T01:52:42;5.90;99.90
13652;DHT22;6899;51.546;6.912;2024-03-23T01:55:08;5.90;99.90
13652;DHT22;6899;51.546;6.912;2024-03-23T01:57:36;5.90;99.90
13652;DHT22;6899;51.546;6.912;2024-03-23T02:00:03;5.90;99.90
13652;DHT22;6899;51.546;6.912;2024-03-23T02:02:30;5.90;99.90
13652;DHT22;6899;51.546;6.912;2024-03-23T02:04:56;5.90;99.90
13652;DHT22;6899;51.546;6.912;2024-03-23T02:07:22;5.90;99.90
13652;DHT22;6899;51.546;6.912;2024-03-23T02:09:49;5.90;99.90
13652;DHT22;6899;51.546;6.912;2024-03-23T02:12:17;5.90;99.90
13652;DHT22;6899;51.546;6.912;2024-03-23T02:14:44;5.90;99.90
13652;DHT22;6899;51.546;6.912;2024-03-23T02:17:11;5.90;99.90
13652;DHT22;6899;51.546;6.912;2024-03-23T02:19:37;6.00;99.90
13652;DHT22;6899;51.546;6.912;2024-03-23T02:22:04;5.90;99.90
13652;DHT22;6899;51.546;6.912;2024-03-23T02:24:31;6.00;99.90
13652;DHT22;6899;51.546;6.912;2024-03-23T02:26:59;5.90;99.90
13652;DHT22;6899;51.546;6.912;2024-03-23T02:29:25;6.00;99.90
13652;DHT22;6899;51.546;6.912;2024-03-23T02:31:52;5.90;99.90
13652;DHT22;6899;51.546;6.912;2024-03-23T02:34:17;6.00;99.90
13652;DHT22;6899;51.546;6.912;2024-03-23T02:36:44;5.90;99.90
13652;DHT22;6899;51.546;6.912;2024-03-23T02:39:10;5.90;99.90
13652;DHT22;6899;51.546;6.912;2024-03-23T02:41:38;6.00;99.90
13652;DHT22;6899;51.546;6.912;2024-03-23T02:44:04;5.90;99.90
13652;DHT22;6899;51.546;6.912;2024-03-23T02:46:32;5.60;99.90
13652;DHT22;6899;51.546;6.912;2024-03-23T02:48:57;5.70;99.90
13652;DHT22;6899;51.546;6.912;2024-03-23T02:51:24;5.70;99.90
13652;DHT22;6899;51.546;6.912;2024-03-23T02:53:50;5.70;99.90
13652;DHT22;6899;51.546;6.912;2024-03-23T02:56:17;5.80;99.90
13652;DHT22;6899;51.546;6.912;2024-03-23T02:58:44;5.80;99.90
13652;DHT22;6899;51.546;6.912;2024-03-23T03:01:11;5.90;99.90
13652;DHT22;6899;51.546;6.912;2024-03-23T03:03:37;5.90;99.90
13652;DHT22;6899;51.546;6.912;2024-03-23T03:06:04;5.80;99.90
13652;DHT22;6899;51.546;6.912;2024-03-23T03:08:30;5.80;99.90
13652;DHT22;6899;51.546;6.912;2024-03-23T03:10:56;5.80;99.90
13652;DHT22;6899;51.546;6.912;2024-03-23T03:13:22;5.70;99.90
13652;DHT22;6899;51.546;6.912;2024-03-23T03:15:50;5.70;99.90
13652;DHT22;6899;51.546;6.912;2024-03-23T03:18:16;5.70;99.90
13652;DHT22;6899;51.546;6.912;2024-03-23T03:20:43;5.60;99.90
13652;DHT22;6899;51.546;6.912;2024-03-23T03:23:09;5.60;99.90
13652;DHT22;6899;51.546;6.912;2024-03-23T03:25:36;5.60;99.90
13652;DHT22;6899;51.546;6.912;2024-03-23T03:28:02;5.50;99.90
13652;DHT22;6899;51.546;6.912;2024-03-23T03:30:29;5.50;99.90
13652;DHT22;6899;51.546;6.912;2024-03-23T03:32:56;5.50;99.90
13652;DHT22;6899;51.546;6.912;2024-03-23T03:35:23;5.50;99.90
13652;DHT22;6899;51.546;6.912;2024-03-23T03:37:49;5.50;99.90
13652;DHT22;6899;51.546;6.912;2024-03-23T03:40:16;5.50;99.90
13652;DHT22;6899;51.546;6.912;2024-03-23T03:42:42;5.50;99.90
13652;DHT22;6899;51.546;6.912;2024-03-23T03:45:08;5.50;99.90
13652;DHT22;6899;51.546;6.912;2024-03-23T03:47:34;5.50;99.90
13652;DHT22;6899;51.546;6.912;2024-03-23T03:50:02;5.50;99.90
13652;DHT22;6899;51.546;6.912;2024-03-23T03:52:28;5.60;99.90
13652;DHT22;6899;51.546;6.912;2024-03-23T03:55:01;5.60;99.90
13652;DHT22;6899;51.546;6.912;2024-03-23T03:57:27;5.60;99.90
13652;DHT22;6899;51.546;6.912;2024-03-23T03:59:54;5.60;99.90
13652;DHT22;6899;51.546;6.912;2024-03-23T04:02:20;5.60;99.90
13652;DHT22;6899;51.546;6.912;2024-03-23T04:04:47;5.60;99.90
13652;DHT22;6899;51.546;6.912;2024-03-23T04:07:14;5.60;99.90
13652;DHT22;6899;51.546;6.912;2024-03-23T04:09:41;5.60;99.90
13652;DHT22;6899;51.546;6.912;2024-03-23T04:12:07;5.60;99.90
13652;DHT22;6899;51.546;6.912;2024-03-23T04:14:34;5.50;99.90
13652;DHT22;6899;51.546;6.912;2024-03-23T04:16:59;5.50;99.90
13652;DHT22;6899;51.546;6.912;2024-03-23T04:19:26;5.50;99.90
13652;DHT22;6899;51.546;6.912;2024-03-23T04:21:52;5.60;99.90
13652;DHT22;6899;51.546;6.912;2024-03-23T04:24:20;5.50;99.90
13652;DHT22;6899;51.546;6.912;2024-03-23T04:26:48;5.40;99.90
13652;DHT22;6899;51.546;6.912;2024-03-23T04:29:14;5.40;99.90
13652;DHT22;6899;51.546;6.912;2024-03-23T04:31:40;5.50;99.90
13652;DHT22;6899;51.546;6.912;2024-03-23T04:34:07;5.40;99.90
13652;DHT22;6899;51.546;6.912;2024-03-23T04:36:33;5.50;99.90
13652;DHT22;6899;51.546;6.912;2024-03-23T04:39:00;5.40;99.90
13652;DHT22;6899;51.546;6.912;2024-03-23T04:41:28;5.40;99.90
13652;DHT22;6899;51.546;6.912;2024-03-23T04:43:55;5.30;99.90
13652;DHT22;6899;51.546;6.912;2024-03-23T04:46:22;5.30;99.90
13652;DHT22;6899;51.546;6.912;2024-03-23T04:48:49;5.30;99.90
13652;DHT22;6899;51.546;6.912;2024-03-23T04:51:20;5.30;99.90
13652;DHT22;6899;51.546;6.912;2024-03-23T04:53:47;5.20;99.90
13652;DHT22;6899;51.546;6.912;2024-03-23T04:56:14;5.20;99.90
13652;DHT22;6899;51.546;6.912;2024-03-23T04:58:43;5.20;99.90
13652;DHT22;6899;51.546;6.912;2024-03-23T05:01:10;5.40;99.90
13652;DHT22;6899;51.546;6.912;2024-03-23T05:03:38;5.20;99.90
13652;DHT22;6899;51.546;6.912;2024-03-23T05:06:04;5.30;99.90
13652;DHT22;6899;51.546;6.912;2024-03-23T05:08:31;5.30;99.90
13652;DHT22;6899;51.546;6.912;2024-03-23T05:10:57;5.20;99.90
13652;DHT22;6899;51.546;6.912;2024-03-23T05:13:24;5.20;99.90
13652;DHT22;6899;51.546;6.912;2024-03-23T05:15:53;5.20;99.90
13652;DHT22;6899;51.546;6.912;2024-03-23T05:18:20;5.20;99.90
13652;DHT22;6899;51.546;6.912;2024-03-23T05:20:45;5.10;99.90
13652;DHT22;6899;51.546;6.912;2024-03-23T05:23:12;5.20;99.90
13652;DHT22;6899;51.546;6.912;2024-03-23T05:25:39;5.20;99.90
13652;DHT22;6899;51.546;6.912;2024-03-23T05:28:05;5.20;99.90
13652;DHT22;6899;51.546;6.912;2024-03-23T05:30:32;5.20;99.90
13652;DHT22;6899;51.546;6.912;2024-03-23T05:32:59;5.20;99.90
13652;DHT22;6899;51.546;6.912;2024-03-23T05:35:26;5.20;99.90
13652;DHT22;6899;51.546;6.912;2024-03-23T05:37:52;5.20;99.90
13652;DHT22;6899;51.546;6.912;2024-03-23T05:40:18;5.20;99.90
13652;DHT22;6899;51.546;6.912;2024-03-23T05:42:45;5.20;99.90
13652;DHT22;6899;51.546;6.912;2024-03-23T05:45:11;5.20;99.90
13652;DHT22;6899;51.546;6.912;2024-03-23T05:47:38;5.20;99.90
13652;DHT22;6899;51.546;6.912;2024-03-23T05:50:06;5.20;99.90
13652;DHT22;6899;51.546;6.912;2024-03-23T05:52:32;5.20;99.90
13652;DHT22;6899;51.546;6.912;2024-03-23T05:54:59;5.20;99.90
13652;DHT22;6899;51.546;6.912;2024-03-23T05:57:25;5.20;99.90
13652;DHT22;6899;51.546;6.912;2024-03-23T05:59:51;5.30;99.90
13652;DHT22;6899;51.546;6.912;2024-03-23T06:02:17;5.20;99.90
13652;DHT22;6899;51.546;6.912;2024-03-23T06:04:45;5.20;99.90
13652;DHT22;6899;51.546;6.912;2024-03-23T06:07:12;5.10;99.90
13652;DHT22;6899;51.546;6.912;2024-03-23T06:09:40;5.00;99.90
13652;DHT22;6899;51.546;6.912;2024-03-23T06:12:06;4.90;99.90
13652;DHT22;6899;51.546;6.912;2024-03-23T06:14:33;4.80;99.90
13652;DHT22;6899;51.546;6.912;2024-03-23T06:16:59;4.70;99.90
13652;DHT22;6899;51.546;6.912;2024-03-23T06:19:26;4.70;99.90
13652;DHT22;6899;51.546;6.912;2024-03-23T06:21:53;4.60;99.90
13652;DHT22;6899;51.546;6.912;2024-03-23T06:24:21;4.80;99.90
13652;DHT22;6899;51.546;6.912;2024-03-23T06:26:47;4.80;99.90
13652;DHT22;6899;51.546;6.912;2024-03-23T06:29:13;4.90;99.90
13652;DHT22;6899;51.546;6.912;2024-03-23T06:31:39;5.10;99.90
13652;DHT22;6899;51.546;6.912;2024-03-23T06:34:06;5.20;99.90
13652;DHT22;6899;51.546;6.912;2024-03-23T06:36:32;5.40;99.90
13652;DHT22;6899;51.546;6.912;2024-03-23T06:38:58;5.80;99.90
13652;DHT22;6899;51.546;6.912;2024-03-23T06:41:26;6.10;99.90
13652;DHT22;6899;51.546;6.912;2024-03-23T06:43:53;6.70;99.90
13652;DHT22;6899;51.546;6.912;2024-03-23T06:46:18;6.90;99.90
13652;DHT22;6899;51.546;6.912;2024-03-23T06:48:45;7.30;99.90
13652;DHT22;6899;51.546;6.912;2024-03-23T06:51:11;7.60;99.90
13652;DHT22;6899;51.546;6.912;2024-03-23T06:53:38;7.80;99.90
13652;DHT22;6899;51.546;6.912;2024-03-23T06:56:04;8.20;99.90
13652;DHT22;6899;51.546;6.912;2024-03-23T06:58:32;8.50;99.90
13652;DHT22;6899;51.546;6.912;2024-03-23T07:00:58;8.50;99.90
13652;DHT22;6899;51.546;6.912;2024-03-23T07:03:25;8.60;99.90
13652;DHT22;6899;51.546;6.912;2024-03-23T07:05:51;9.10;99.90
13652;DHT22;6899;51.546;6.912;2024-03-23T07:08:18;9.00;99.90
13652;DHT22;6899;51.546;6.912;2024-03-23T07:10:47;8.90;99.90
13652;DHT22;6899;51.546;6.912;2024-03-23T07:13:14;9.00;99.90
13652;DHT22;6899;51.546;6.912;2024-03-23T07:15:41;8.90;99.90
13652;DHT22;6899;51.546;6.912;2024-03-23T07:18:08;9.20;99.90
13652;DHT22;6899;51.546;6.912;2024-03-23T07:20:34;9.60;99.90
13652;DHT22;6899;51.546;6.912;2024-03-23T07:23:00;9.60;99.90
13652;DHT22;6899;51.546;6.912;2024-03-23T07:25:26;10.00;99.90
13652;DHT22;6899;51.546;6.912;2024-03-23T07:27:54;10.20;99.90
13652;DHT22;6899;51.546;6.912;2024-03-23T07:30:20;10.60;99.90
13652;DHT22;6899;51.546;6.912;2024-03-23T07:32:48;11.10;99.90
13652;DHT22;6899;51.546;6.912;2024-03-23T07:35:14;11.10;99.90
13652;DHT22;6899;51.546;6.912;2024-03-23T07:37:41;10.90;99.90
13652;DHT22;6899;51.546;6.912;2024-03-23T07:40:08;10.30;99.90
13652;DHT22;6899;51.546;6.912;2024-03-23T07:42:35;10.30;99.90
13652;DHT22;6899;51.546;6.912;2024-03-23T07:45:01;9.90;99.90
13652;DHT22;6899;51.546;6.912;2024-03-23T07:47:28;9.60;99.90
13652;DHT22;6899;51.546;6.912;2024-03-23T07:49:55;9.50;99.90
13652;DHT22;6899;51.546;6.912;2024-03-23T07:52:21;9.40;99.90
13652;DHT22;6899;51.546;6.912;2024-03-23T07:54:47;9.70;99.90
13652;DHT22;6899;51.546;6.912;2024-03-23T07:57:15;9.70;99.90
13652;DHT22;6899;51.546;6.912;2024-03-23T07:59:41;9.40;99.90
13652;DHT22;6899;51.546;6.912;2024-03-23T08:02:07;9.50;99.90
13652;DHT22;6899;51.546;6.912;2024-03-23T08:04:33;9.60;99.90
13652;DHT22;6899;51.546;6.912;2024-03-23T08:07:02;9.90;99.90
13652;DHT22;6899;51.546;6.912;2024-03-23T08:09:27;10.00;99.90
13652;DHT22;6899;51.546;6.912;2024-03-23T08:11:54;10.10;99.90
13652;DHT22;6899;51.546;6.912;2024-03-23T08:14:20;10.00;99.90
13652;DHT22;6899;51.546;6.912;2024-03-23T08:16:47;9.70;99.90
13652;DHT22;6899;51.546;6.912;2024-03-23T08:19:16;9.70;99.90
13652;DHT22;6899;51.546;6.912;2024-03-23T08:21:42;9.70;99.90
13652;DHT22;6899;51.546;6.912;2024-03-23T08:24:10;9.70;99.90
13652;DHT22;6899;51.546;6.912;2024-03-23T08:26:36;9.80;99.90
13652;DHT22;6899;51.546;6.912;2024-03-23T08:29:04;10.20;99.90
13652;DHT22;6899;51.546;6.912;2024-03-23T08:31:30;10.30;99.90
13652;DHT22;6899;51.546;6.912;2024-03-23T08:33:57;10.40;99.90
13652;DHT22;6899;51.546;6.912;2024-03-23T08:36:22;10.00;99.90
13652;DHT22;6899;51.546;6.912;2024-03-23T08:38:49;9.90;99.90
13652;DHT22;6899;51.546;6.912;2024-03-23T08:41:17;9.40;99.90
13652;DHT22;6899;51.546;6.912;2024-03-23T08:43:44;9.50;99.90
13652;DHT22;6899;51.546;6.912;2024-03-23T08:46:10;9.30;99.90
13652;DHT22;6899;51.546;6.912;2024-03-23T08:48:39;8.90;99.90
13652;DHT22;6899;51.546;6.912;2024-03-23T08:51:06;9.40;99.90
13652;DHT22;6899;51.546;6.912;2024-03-23T08:53:34;10.10;99.90
13652;DHT22;6899;51.546;6.912;2024-03-23T08:56:00;10.70;99.90
13652;DHT22;6899;51.546;6.912;2024-03-23T08:58:31;10.90;99.90
13652;DHT22;6899;51.546;6.912;2024-03-23T09:01:03;11.60;99.90
13652;DHT22;6899;51.546;6.912;2024-03-23T09:03:30;11.60;99.90
13652;DHT22;6899;51.546;6.912;2024-03-23T09:05:56;11.00;99.90
13652;DHT22;6899;51.546;6.912;2024-03-23T09:08:24;10.70;99.90
13652;DHT22;6899;51.546;6.912;2024-03-23T09:10:51;10.20;99.90
13652;DHT22;6899;51.546;6.912;2024-03-23T09:13:19;9.60;99.90
13652;DHT22;6899;51.546;6.912;2024-03-23T09:15:50;9.30;99.90
13652;DHT22;6899;51.546;6.912;2024-03-23T09:18:17;8.90;99.90
13652;DHT22;6899;51.546;6.912;2024-03-23T09:20:43;8.50;99.90
13652;DHT22;6899;51.546;6.912;2024-03-23T09:23:10;8.20;99.90
13652;DHT22;6899;51.546;6.912;2024-03-23T09:25:38;8.20;99.90
13652;DHT22;6899;51.546;6.912;2024-03-23T09:28:06;8.40;99.90
13652;DHT22;6899;51.546;6.912;2024-03-23T09:30:34;9.00;99.90
13652;DHT22;6899;51.546;6.912;2024-03-23T09:33:03;9.60;99.90
13652;DHT22;6899;51.546;6.912;2024-03-23T09:35:29;9.90;99.90
13652;DHT22;6899;51.546;6.912;2024-03-23T09:37:56;9.70;99.90
13652;DHT22;6899;51.546;6.912;2024-03-23T09:40:22;9.50;99.90
13652;DHT22;6899;51.546;6.912;2024-03-23T09:42:52;9.20;99.90
13652;DHT22;6899;51.546;6.912;2024-03-23T09:45:21;8.60;99.90
13652;DHT22;6899;51.546;6.912;2024-03-23T09:47:49;8.30;99.90
13652;DHT22;6899;51.546;6.912;2024-03-23T09:50:18;8.10;99.90
13652;DHT22;6899;51.546;6.912;2024-03-23T09:52:46;8.20;99.90
13652;DHT22;6899;51.546;6.912;2024-03-23T09:55:12;8.20;99.90
13652;DHT22;6899;51.546;6.912;2024-03-23T09:57:39;8.30;99.90
13652;DHT22;6899;51.546;6.912;2024-03-23T10:00:06;8.30;99.90
13652;DHT22;6899;51.546;6.912;2024-03-23T10:02:33;8.70;99.90
13652;DHT22;6899;51.546;6.912;2024-03-23T10:04:59;9.80;99.90
13652;DHT22;6899;51.546;6.912;2024-03-23T10:07:27;10.70;99.90
13652;DHT22;6899;51.546;6.912;2024-03-23T10:09:54;11.40;99.90
13652;DHT22;6899;51.546;6.912;2024-03-23T10:12:21;11.10;99.90
13652;DHT22;6899;51.546;6.912;2024-03-23T10:14:47;10.40;99.90
13652;DHT22;6899;51.546;6.912;2024-03-23T10:17:15;10.00;99.90
13652;DHT22;6899;51.546;6.912;2024-03-23T10:19:43;9.50;99.90
13652;DHT22;6899;51.546;6.912;2024-03-23T10:22:15;9.20;99.90
13652;DHT22;6899;51.546;6.912;2024-03-23T10:24:42;8.60;99.90
13652;DHT22;6899;51.546;6.912;2024-03-23T10:27:09;8.10;99.90
13652;DHT22;6899;51.546;6.912;2024-03-23T10:29:35;8.00;99.90
13652;DHT22;6899;51.546;6.912;2024-03-23T10:32:08;8.20;99.90
13652;DHT22;6899;51.546;6.912;2024-03-23T10:34:34;8.70;99.90
13652;DHT22;6899;51.546;6.912;2024-03-23T10:37:02;9.50;99.90
13652;DHT22;6899;51.546;6.912;2024-03-23T10:39:33;10.70;99.90
13652;DHT22;6899;51.546;6.912;2024-03-23T10:42:04;11.30;99.90
13652;DHT22;6899;51.546;6.912;2024-03-23T10:44:31;11.30;99.90
13652;DHT22;6899;51.546;6.912;2024-03-23T10:46:59;10.10;99.90
13652;DHT22;6899;51.546;6.912;2024-03-23T10:49:26;9.10;99.90
13652;DHT22;6899;51.546;6.912;2024-03-23T10:51:56;8.40;99.90
13652;DHT22;6899;51.546;6.912;2024-03-23T10:54:24;7.90;99.90
13652;DHT22;6899;51.546;6.912;2024-03-23T10:56:57;7.50;99.90
13652;DHT22;6899;51.546;6.912;2024-03-23T10:59:27;7.20;99.90
13652;DHT22;6899;51.546;6.912;2024-03-23T11:01:56;7.10;99.90
13652;DHT22;6899;51.546;6.912;2024-03-23T11:04:32;7.20;99.90
13652;DHT22;6899;51.546;6.912;2024-03-23T11:06:59;7.90;99.90
13652;DHT22;6899;51.546;6.912;2024-03-23T11:09:41;8.40;99.90
13652;DHT22;6899;51.546;6.912;2024-03-23T11:12:27;9.00;99.90
13652;DHT22;6899;51.546;6.912;2024-03-23T11:14:56;9.50;99.90
13652;DHT22;6899;51.546;6.912;2024-03-23T11:17:25;9.90;99.90
13652;DHT22;6899;51.546;6.912;2024-03-23T11:19:56;10.20;99.90
13652;DHT22;6899;51.546;6.912;2024-03-23T11:22:39;10.40;99.90
13652;DHT22;6899;51.546;6.912;2024-03-23T11:25:15;10.10;99.90
13652;DHT22;6899;51.546;6.912;2024-03-23T11:27:44;9.80;99.90
13652;DHT22;6899;51.546;6.912;2024-03-23T11:30:14;9.80;99.90
13652;DHT22;6899;51.546;6.912;2024-03-23T11:32:44;9.90;99.90
13652;DHT22;6899;51.546;6.912;2024-03-23T11:35:11;9.90;99.90
13652;DHT22;6899;51.546;6.912;2024-03-23T11:38:02;10.10;99.90
13652;DHT22;6899;51.546;6.912;2024-03-23T11:40:28;10.20;99.90
13652;DHT22;6899;51.546;6.912;2024-03-23T11:42:55;10.10;99.90
13652;DHT22;6899;51.546;6.912;2024-03-23T11:45:23;10.40;99.90
13652;DHT22;6899;51.546;6.912;2024-03-23T11:48:05;10.40;99.90
13652;DHT22;6899;51.546;6.912;2024-03-23T11:50:31;11.10;99.90
13652;DHT22;6899;51.546;6.912;2024-03-23T11:53:08;11.80;99.90
13652;DHT22;6899;51.546;6.912;2024-03-23T11:55:42;12.20;99.90
13652;DHT22;6899;51.546;6.912;2024-03-23T11:58:09;12.20;99.90
13652;DHT22;6899;51.546;6.912;2024-03-23T12:00:37;12.10;99.90
13652;DHT22;6899;51.546;6.912;2024-03-23T12:03:05;12.50;99.90
13652;DHT22;6899;51.546;6.912;2024-03-23T12:05:31;12.80;99.90
13652;DHT22;6899;51.546;6.912;2024-03-23T12:08:19;11.60;99.90
13652;DHT22;6899;51.546;6.912;2024-03-23T12:10:47;10.40;99.90
13652;DHT22;6899;51.546;6.912;2024-03-23T12:13:18;9.30;99.90
13652;DHT22;6899;51.546;6.912;2024-03-23T12:15:46;8.90;99.90
13652;DHT22;6899;51.546;6.912;2024-03-23T12:18:13;8.60;99.90
13652;DHT22;6899;51.546;6.912;2024-03-23T12:20:40;8.70;99.90
13652;DHT22;6899;51.546;6.912;2024-03-23T12:23:08;8.70;99.90
13652;DHT22;6899;51.546;6.912;2024-03-23T12:25:35;8.70;99.90
13652;DHT22;6899;51.546;6.912;2024-03-23T12:28:02;8.70;99.90
13652;DHT22;6899;51.546;6.912;2024-03-23T12:30:28;8.90;99.90
13652;DHT22;6899;51.546;6.912;2024-03-23T12:32:56;9.10;99.90
13652;DHT22;6899;51.546;6.912;2024-03-23T12:35:22;9.30;99.90
13652;DHT22;6899;51.546;6.912;2024-03-23T12:37:49;9.60;99.90
13652;DHT22;6899;51.546;6.912;2024-03-23T12:40:15;9.80;99.90
13652;DHT22;6899;51.546;6.912;2024-03-23T12:42:42;9.70;99.90
13652;DHT22;6899;51.546;6.912;2024-03-23T12:45:08;9.90;99.90
13652;DHT22;6899;51.546;6.912;2024-03-23T12:47:35;10.30;99.90
13652;DHT22;6899;51.546;6.912;2024-03-23T12:50:03;10.70;99.90
13652;DHT22;6899;51.546;6.912;2024-03-23T12:52:31;10.60;99.90
13652;DHT22;6899;51.546;6.912;2024-03-23T12:54:57;10.90;99.90
13652;DHT22;6899;51.546;6.912;2024-03-23T12:57:24;10.70;99.90
13652;DHT22;6899;51.546;6.912;2024-03-23T12:59:50;10.20;99.90
13652;DHT22;6899;51.546;6.912;2024-03-23T13:02:19;9.40;99.90
13652;DHT22;6899;51.546;6.912;2024-03-23T13:04:46;8.80;99.90
13652;DHT22;6899;51.546;6.912;2024-03-23T13:07:14;8.10;99.90
13652;DHT22;6899;51.546;6.912;2024-03-23T13:09:40;7.80;99.90
13652;DHT22;6899;51.546;6.912;2024-03-23T13:12:07;7.60;99.90
13652;DHT22;6899;51.546;6.912;2024-03-23T13:14:34;7.50;99.90
13652;DHT22;6899;51.546;6.912;2024-03-23T13:17:01;7.30;99.90
13652;DHT22;6899;51.546;6.912;2024-03-23T13:19:27;7.50;99.90
13652;DHT22;6899;51.546;6.912;2024-03-23T13:21:56;7.50;99.90
13652;DHT22;6899;51.546;6.912;2024-03-23T13:24:24;7.50;99.90
13652;DHT22;6899;51.546;6.912;2024-03-23T13:26:51;7.60;99.90
13652;DHT22;6899;51.546;6.912;2024-03-23T13:29:18;7.30;99.90
13652;DHT22;6899;51.546;6.912;2024-03-23T13:31:44;7.40;99.90
13652;DHT22;6899;51.546;6.912;2024-03-23T13:34:10;7.00;99.90
13652;DHT22;6899;51.546;6.912;2024-03-23T13:36:38;6.90;99.90
13652;DHT22;6899;51.546;6.912;2024-03-23T13:39:04;6.90;99.90
13652;DHT22;6899;51.546;6.912;2024-03-23T13:41:38;7.10;99.90
13652;DHT22;6899;51.546;6.912;2024-03-23T13:44:04;7.60;99.90
13652;DHT22;6899;51.546;6.912;2024-03-23T13:46:31;7.90;99.90
13652;DHT22;6899;51.546;6.912;2024-03-23T13:48:57;8.40;99.90
13652;DHT22;6899;51.546;6.912;2024-03-23T13:51:24;8.70;99.90
13652;DHT22;6899;51.546;6.912;2024-03-23T13:53:52;9.20;99.90
13652;DHT22;6899;51.546;6.912;2024-03-23T13:56:19;9.30;99.90
13652;DHT22;6899;51.546;6.912;2024-03-23T13:58:46;9.70;99.90
13652;DHT22;6899;51.546;6.912;2024-03-23T14:01:14;10.00;99.90
13652;DHT22;6899;51.546;6.912;2024-03-23T14:03:40;10.40;99.90
13652;DHT22;6899;51.546;6.912;2024-03-23T14:06:07;10.80;99.90
13652;DHT22;6899;51.546;6.912;2024-03-23T14:08:34;10.90;99.90
13652;DHT22;6899;51.546;6.912;2024-03-23T14:11:02;10.80;99.90
13652;DHT22;6899;51.546;6.912;2024-03-23T14:13:29;10.50;99.90
13652;DHT22;6899;51.546;6.912;2024-03-23T14:15:58;10.20;99.90
13652;DHT22;6899;51.546;6.912;2024-03-23T14:18:24;10.00;99.90
13652;DHT22;6899;51.546;6.912;2024-03-23T14:20:51;9.70;99.90
13652;DHT22;6899;51.546;6.912;2024-03-23T14:23:17;9.40;99.90
13652;DHT22;6899;51.546;6.912;2024-03-23T14:25:44;9.40;99.90
13652;DHT22;6899;51.546;6.912;2024-03-23T14:28:10;9.20;99.90
13652;DHT22;6899;51.546;6.912;2024-03-23T14:30:41;9.40;99.90
13652;DHT22;6899;51.546;6.912;2024-03-23T14:33:08;9.20;99.90
13652;DHT22;6899;51.546;6.912;2024-03-23T14:35:35;9.30;99.90
13652;DHT22;6899;51.546;6.912;2024-03-23T14:38:01;9.20;99.90
13652;DHT22;6899;51.546;6.912;2024-03-23T14:40:28;9.30;99.90
13652;DHT22;6899;51.546;6.912;2024-03-23T14:42:54;9.70;99.90
13652;DHT22;6899;51.546;6.912;2024-03-23T14:45:21;10.00;99.90
13652;DHT22;6899;51.546;6.912;2024-03-23T14:47:49;10.30;99.90
13652;DHT22;6899;51.546;6.912;2024-03-23T14:50:17;10.50;99.90
13652;DHT22;6899;51.546;6.912;2024-03-23T14:52:44;10.50;99.90
13652;DHT22;6899;51.546;6.912;2024-03-23T14:55:11;10.80;99.90
13652;DHT22;6899;51.546;6.912;2024-03-23T14:57:38;10.70;99.90
13652;DHT22;6899;51.546;6.912;2024-03-23T15:00:07;10.50;99.90
13652;DHT22;6899;51.546;6.912;2024-03-23T15:02:33;10.40;99.90
13652;DHT22;6899;51.546;6.912;2024-03-23T15:05:00;10.00;99.90
13652;DHT22;6899;51.546;6.912;2024-03-23T15:07:27;9.80;99.90
13652;DHT22;6899;51.546;6.912;2024-03-23T15:09:54;9.40;99.90
13652;DHT22;6899;51.546;6.912;2024-03-23T15:12:20;9.20;99.90
13652;DHT22;6899;51.546;6.912;2024-03-23T15:14:47;8.80;99.90
13652;DHT22;6899;51.546;6.912;2024-03-23T15:17:14;8.80;99.90
13652;DHT22;6899;51.546;6.912;2024-03-23T15:19:41;9.20;99.90
13652;DHT22;6899;51.546;6.912;2024-03-23T15:22:08;9.50;99.90
13652;DHT22;6899;51.546;6.912;2024-03-23T15:24:37;9.70;99.90
13652;DHT22;6899;51.546;6.912;2024-03-23T15:27:03;9.80;99.90
13652;DHT22;6899;51.546;6.912;2024-03-23T15:29:30;9.80;99.90
13652;DHT22;6899;51.546;6.912;2024-03-23T15:31:56;10.00;99.90
13652;DHT22;6899;51.546;6.912;2024-03-23T15:34:23;10.10;99.90
13652;DHT22;6899;51.546;6.912;2024-03-23T15:36:49;10.20;99.90
13652;DHT22;6899;51.546;6.912;2024-03-23T15:39:16;10.30;99.90
13652;DHT22;6899;51.546;6.912;2024-03-23T15:41:45;10.30;99.90
13652;DHT22;6899;51.546;6.912;2024-03-23T15:44:12;10.40;99.90
13652;DHT22;6899;51.546;6.912;2024-03-23T15:46:39;10.00;99.90
13652;DHT22;6899;51.546;6.912;2024-03-23T15:49:05;9.80;99.90
13652;DHT22;6899;51.546;6.912;2024-03-23T15:51:32;9.60;99.90
13652;DHT22;6899;51.546;6.912;2024-03-23T15:54:00;9.50;99.90
13652;DHT22;6899;51.546;6.912;2024-03-23T15:56:28;9.30;99.90
13652;DHT22;6899;51.546;6.912;2024-03-23T15:58:55;9.40;99.90
13652;DHT22;6899;51.546;6.912;2024-03-23T16:01:28;9.30;99.90
13652;DHT22;6899;51.546;6.912;2024-03-23T16:03:53;9.40;99.90
13652;DHT22;6899;51.546;6.912;2024-03-23T16:06:20;9.40;99.90
13652;DHT22;6899;51.546;6.912;2024-03-23T16:08:46;9.10;99.90
13652;DHT22;6899;51.546;6.912;2024-03-23T16:11:13;8.80;99.90
13652;DHT22;6899;51.546;6.912;2024-03-23T16:13:38;8.70;99.90
13652;DHT22;6899;51.546;6.912;2024-03-23T16:16:08;8.50;99.90
13652;DHT22;6899;51.546;6.912;2024-03-23T16:18:37;8.60;99.90
13652;DHT22;6899;51.546;6.912;2024-03-23T16:21:05;8.60;99.90
13652;DHT22;6899;51.546;6.912;2024-03-23T16:23:32;8.40;99.90
13652;DHT22;6899;51.546;6.912;2024-03-23T16:25:59;8.30;99.90
13652;DHT22;6899;51.546;6.912;2024-03-23T16:28:27;8.30;99.90
13652;DHT22;6899;51.546;6.912;2024-03-23T16:30:55;8.00;99.90
13652;DHT22;6899;51.546;6.912;2024-03-23T16:33:23;7.80;99.90
13652;DHT22;6899;51.546;6.912;2024-03-23T16:35:59;7.60;99.90
13652;DHT22;6899;51.546;6.912;2024-03-23T16:38:26;7.50;99.90
13652;DHT22;6899;51.546;6.912;2024-03-23T16:40:54;7.50;99.90
13652;DHT22;6899;51.546;6.912;2024-03-23T16:43:20;7.50;99.90
13652;DHT22;6899;51.546;6.912;2024-03-23T16:45:58;7.50;99.90
13652;DHT22;6899;51.546;6.912;2024-03-23T16:48:27;7.50;99.90
13652;DHT22;6899;51.546;6.912;2024-03-23T16:50:57;7.20;99.90
13652;DHT22;6899;51.546;6.912;2024-03-23T16:53:23;6.40;99.90
13652;DHT22;6899;51.546;6.912;2024-03-23T16:55:54;5.70;99.90